Time;durP1;ratioP1;P1;durP2;ratioP2;P2;SDS_P1;SDS_P2;PMS_P1;PMS_P2;Temp;Humidity;BMP_temperature;BMP_pressure;BME280_temperature;BME280_humidity;BME280_pressure;Samples;Min_cycle;Max_cycle;Signal;HPM_P1;HPM_P2
2022/07/22 00:02:22;;;;;;;6.47;1.17;;;17.60;99.90;;;;;;5031516;28;20111;-75
2022/07/22 00:04:48;;;;;;;10.02;1.38;;;17.60;99.90;;;;;;5032102;28;20489;-74
2022/07/22 00:07:14;;;;;;;6.32;0.95;;;17.60;99.90;;;;;;5023931;28;20018;-75
2022/07/22 00:09:40;;;;;;;5.15;0.93;;;17.60;99.90;;;;;;5031196;28;20478;-75
2022/07/22 00:12:06;;;;;;;3.22;0.93;;;17.60;99.90;;;;;;5028833;28;20025;-75
2022/07/22 00:14:32;;;;;;;6.22;1.65;;;17.60;99.90;;;;;;5030028;28;20029;-75
2022/07/22 00:16:58;;;;;;;6.45;1.42;;;17.50;99.90;;;;;;5030954;28;20029;-75
2022/07/22 00:19:24;;;;;;;6.82;0.95;;;17.50;99.90;;;;;;5030526;28;20025;-75
2022/07/22 00:21:51;;;;;;;1.98;1.13;;;17.50;99.90;;;;;;5031122;28;20100;-74
2022/07/22 00:24:17;;;;;;;5.78;1.00;;;17.40;99.90;;;;;;5030585;28;20084;-75
2022/07/22 00:26:43;;;;;;;9.23;1.58;;;17.40;99.90;;;;;;5008289;23;20059;-86
2022/07/22 00:29:09;;;;;;;5.47;1.00;;;17.40;99.90;;;;;;4970083;28;20027;-86
2022/07/22 00:31:34;;;;;;;11.77;1.40;;;17.30;99.90;;;;;;4985578;28;20026;-86
2022/07/22 00:34:01;;;;;;;5.15;1.38;;;17.30;99.90;;;;;;4971422;28;20094;-86
2022/07/22 00:36:28;;;;;;;5.97;1.42;;;17.30;99.90;;;;;;4961369;28;20377;-86
2022/07/22 00:38:54;;;;;;;4.60;1.20;;;17.20;99.90;;;;;;4967131;28;20027;-86
2022/07/22 00:41:19;;;;;;;4.28;1.77;;;17.20;99.90;;;;;;4954042;28;20019;-86
2022/07/22 00:43:54;;;;;;;4.70;1.35;;;17.20;99.90;;;;;;4986571;28;20058;-86
2022/07/22 00:46:20;;;;;;;7.35;1.23;;;17.20;99.90;;;;;;4961134;28;20379;-86
2022/07/22 00:48:46;;;;;;;6.25;1.33;;;17.20;99.90;;;;;;4982419;28;20034;-85
2022/07/22 00:51:13;;;;;;;2.67;1.15;;;17.20;99.90;;;;;;4952494;28;20082;-83
2022/07/22 00:53:38;;;;;;;7.32;1.20;;;17.20;99.90;;;;;;4959059;28;20031;-85
2022/07/22 00:56:05;;;;;;;8.80;1.33;;;17.20;99.90;;;;;;4966892;28;20436;-85
2022/07/22 00:58:30;;;;;;;6.55;1.42;;;17.20;99.90;;;;;;4960356;28;20356;-85
2022/07/22 01:00:56;;;;;;;5.88;1.38;;;17.20;99.90;;;;;;4969711;28;20023;-85
2022/07/22 01:03:22;;;;;;;3.88;1.13;;;17.30;99.90;;;;;;4964263;28;20029;-86
2022/07/22 01:05:48;;;;;;;7.20;1.30;;;17.30;99.90;;;;;;4960556;28;20019;-86
2022/07/22 01:08:13;;;;;;;3.75;1.30;;;17.30;99.90;;;;;;4960729;28;20380;-86
2022/07/22 01:10:39;;;;;;;5.75;1.27;;;17.20;99.90;;;;;;4966944;28;20026;-85
2022/07/22 01:13:06;;;;;;;3.25;1.20;;;17.20;99.90;;;;;;4959860;28;20024;-85
2022/07/22 01:15:33;;;;;;;4.60;1.30;;;17.20;99.90;;;;;;4985683;28;20023;-85
2022/07/22 01:18:00;;;;;;;4.90;1.10;;;17.20;99.90;;;;;;4956478;28;20408;-86
2022/07/22 01:20:25;;;;;;;3.28;1.13;;;17.20;99.90;;;;;;4957600;28;20023;-86
2022/07/22 01:22:52;;;;;;;3.42;1.30;;;17.20;99.90;;;;;;4962628;28;20019;-86
2022/07/22 01:25:18;;;;;;;2.33;1.10;;;17.20;99.90;;;;;;4984359;23;20003;-74
2022/07/22 01:27:44;;;;;;;5.18;1.10;;;17.20;99.90;;;;;;4989293;28;20483;-75
2022/07/22 01:30:10;;;;;;;4.45;1.20;;;17.20;99.90;;;;;;4990584;28;20024;-74
2022/07/22 01:32:36;;;;;;;5.40;1.30;;;17.10;99.90;;;;;;4989957;28;20022;-74
2022/07/22 01:35:02;;;;;;;2.67;0.95;;;17.10;99.90;;;;;;4990222;28;20037;-74
2022/07/22 01:37:28;;;;;;;4.72;0.88;;;17.00;99.90;;;;;;4972585;28;20475;-74
2022/07/22 01:39:53;;;;;;;7.75;1.40;;;16.90;99.90;;;;;;4971084;28;20026;-74
2022/07/22 01:42:19;;;;;;;6.80;1.10;;;16.90;99.90;;;;;;4971525;28;20023;-75
2022/07/22 01:44:46;;;;;;;4.88;1.23;;;16.90;99.90;;;;;;4972372;28;20101;-74
2022/07/22 01:47:12;;;;;;;6.05;1.67;;;16.80;99.90;;;;;;4976313;28;20023;-75
2022/07/22 01:49:38;;;;;;;6.63;1.42;;;16.80;99.90;;;;;;4976062;28;20025;-74
2022/07/22 01:52:04;;;;;;;5.45;1.25;;;16.80;99.90;;;;;;4968931;28;20051;-75
2022/07/22 01:54:31;;;;;;;6.82;1.10;;;16.70;99.90;;;;;;4975830;28;20502;-75
2022/07/22 01:56:56;;;;;;;6.32;1.35;;;16.70;99.90;;;;;;4973508;28;20057;-74
2022/07/22 01:59:22;;;;;;;3.50;1.10;;;16.70;99.90;;;;;;4975814;28;20054;-74
2022/07/22 02:01:48;;;;;;;5.93;1.20;;;16.70;99.90;;;;;;4975622;28;20018;-75
2022/07/22 02:04:14;;;;;;;5.15;1.23;;;16.70;99.90;;;;;;4975740;28;20054;-76
2022/07/22 02:06:40;;;;;;;4.95;1.27;;;16.70;99.90;;;;;;4975750;28;20022;-74
2022/07/22 02:09:06;;;;;;;2.40;1.05;;;16.70;99.90;;;;;;4975840;28;20027;-76
2022/07/22 02:11:32;;;;;;;2.88;1.08;;;16.70;99.90;;;;;;4975563;28;20023;-74
2022/07/22 02:13:58;;;;;;;8.30;1.67;;;16.70;99.90;;;;;;4975688;28;20122;-74
2022/07/22 02:16:24;;;;;;;6.07;1.38;;;16.60;99.90;;;;;;4975469;28;20028;-75
2022/07/22 02:18:50;;;;;;;4.10;0.88;;;16.60;99.90;;;;;;4975692;28;20031;-74
2022/07/22 02:21:16;;;;;;;5.25;1.23;;;16.60;99.90;;;;;;4976155;28;20376;-74
2022/07/22 02:23:42;;;;;;;5.28;1.13;;;16.60;99.90;;;;;;4975883;28;20461;-74
2022/07/22 02:26:08;;;;;;;6.35;1.10;;;16.70;99.90;;;;;;5022964;23;20409;-85
2022/07/22 02:28:34;;;;;;;3.28;1.17;;;16.70;99.90;;;;;;5026531;28;20483;-85
2022/07/22 02:30:59;;;;;;;4.47;1.30;;;16.70;99.90;;;;;;5019446;28;20446;-86
2022/07/22 02:33:25;;;;;;;7.72;1.38;;;16.80;99.90;;;;;;5030395;28;20402;-86
2022/07/22 02:35:51;;;;;;;4.75;0.95;;;16.80;99.90;;;;;;5014894;28;20025;-85
2022/07/22 02:38:17;;;;;;;4.38;1.35;;;16.80;99.90;;;;;;5002379;28;20030;-85
2022/07/22 02:40:42;;;;;;;3.45;0.93;;;16.70;99.90;;;;;;5001224;28;20033;-85
2022/07/22 02:43:08;;;;;;;4.22;1.13;;;16.80;99.90;;;;;;4994464;28;20026;-86
2022/07/22 02:45:34;;;;;;;3.80;1.08;;;16.70;99.90;;;;;;4995257;28;20022;-86
2022/07/22 02:48:00;;;;;;;5.00;1.13;;;16.70;99.90;;;;;;4994011;28;20030;-86
2022/07/22 02:50:26;;;;;;;2.67;1.38;;;16.60;99.90;;;;;;5001483;28;20029;-86
2022/07/22 02:52:52;;;;;;;2.70;1.00;;;16.60;99.90;;;;;;4995330;28;20480;-85
2022/07/22 02:55:18;;;;;;;4.70;1.20;;;16.60;99.90;;;;;;5003682;28;20026;-85
2022/07/22 02:57:44;;;;;;;3.50;0.93;;;16.60;99.90;;;;;;4994285;28;20503;-86
2022/07/22 03:00:12;;;;;;;8.35;1.10;;;16.50;99.90;;;;;;5001838;28;20156;-86
2022/07/22 03:02:39;;;;;;;3.33;0.98;;;16.50;99.90;;;;;;4994048;28;20022;-86
2022/07/22 03:05:06;;;;;;;2.03;0.80;;;16.40;99.90;;;;;;5000583;28;20030;-86
2022/07/22 03:07:32;;;;;;;5.03;1.13;;;16.40;99.90;;;;;;4994942;28;20018;-86
2022/07/22 03:09:58;;;;;;;4.90;0.82;;;16.30;99.90;;;;;;4994996;28;20038;-85
2022/07/22 03:12:24;;;;;;;4.70;1.58;;;16.30;99.90;;;;;;4999601;28;20049;-86
2022/07/22 03:14:50;;;;;;;6.32;1.20;;;16.30;99.90;;;;;;4994763;28;20027;-85
2022/07/22 03:17:16;;;;;;;6.72;1.67;;;16.20;99.90;;;;;;5001655;28;20023;-85
2022/07/22 03:19:41;;;;;;;3.92;1.10;;;16.20;99.90;;;;;;4993418;28;20045;-85
2022/07/22 03:22:07;;;;;;;6.47;1.10;;;16.30;99.90;;;;;;4999839;28;20072;-85
2022/07/22 03:24:34;;;;;;;1.48;0.77;;;16.30;99.90;;;;;;4999435;28;20014;-86
2022/07/22 03:26:59;;;;;;;6.60;1.48;;;16.30;99.90;;;;;;5017787;23;20138;-75
2022/07/22 03:29:25;;;;;;;6.07;1.15;;;16.30;99.90;;;;;;4991523;28;20105;-74
2022/07/22 03:31:51;;;;;;;9.73;1.25;;;16.20;99.90;;;;;;4992272;28;20010;-75
2022/07/22 03:34:16;;;;;;;4.20;1.10;;;16.30;99.90;;;;;;4992145;28;20037;-75
2022/07/22 03:36:42;;;;;;;3.15;1.02;;;16.30;99.90;;;;;;4992364;28;20030;-75
2022/07/22 03:39:08;;;;;;;3.10;1.05;;;16.30;99.90;;;;;;4992038;28;20022;-75
2022/07/22 03:41:34;;;;;;;3.25;0.90;;;16.30;99.90;;;;;;4991597;28;20019;-78
2022/07/22 03:43:59;;;;;;;2.67;0.98;;;16.30;99.90;;;;;;4992630;28;20076;-77
2022/07/22 03:46:25;;;;;;;6.03;1.55;;;16.30;99.90;;;;;;4990120;28;20026;-75
2022/07/22 03:48:51;;;;;;;5.00;1.05;;;16.20;99.90;;;;;;4991826;28;20181;-75
2022/07/22 03:51:16;;;;;;;5.85;0.93;;;16.20;99.90;;;;;;4992157;28;20101;-75
2022/07/22 03:53:42;;;;;;;5.07;1.13;;;16.10;99.90;;;;;;4991574;28;20034;-77
2022/07/22 03:56:08;;;;;;;6.72;1.10;;;16.00;99.90;;;;;;4990283;28;20033;-75
2022/07/22 03:58:34;;;;;;;3.13;1.00;;;16.00;99.90;;;;;;4972651;28;20023;-75
2022/07/22 04:01:00;;;;;;;5.82;0.98;;;16.00;99.90;;;;;;4973854;28;20023;-75
2022/07/22 04:03:25;;;;;;;7.22;1.45;;;15.90;99.90;;;;;;4974231;28;20106;-75
2022/07/22 04:05:51;;;;;;;2.20;0.88;;;15.90;99.90;;;;;;4973883;28;20098;-74
2022/07/22 04:08:18;;;;;;;3.95;1.13;;;15.90;99.90;;;;;;4973815;28;20026;-77
2022/07/22 04:10:44;;;;;;;1.30;0.80;;;16.00;99.90;;;;;;4973606;28;20031;-74
2022/07/22 04:13:10;;;;;;;9.00;0.95;;;16.10;99.90;;;;;;4973774;28;20027;-75
2022/07/22 04:15:37;;;;;;;6.25;1.13;;;16.10;99.90;;;;;;4973431;28;20023;-75
2022/07/22 04:18:02;;;;;;;1.98;0.93;;;16.10;99.90;;;;;;4973519;28;20073;-77
2022/07/22 04:20:28;;;;;;;3.75;1.27;;;16.10;99.90;;;;;;4973227;28;20030;-74
2022/07/22 04:22:54;;;;;;;5.57;1.13;;;16.10;99.90;;;;;;4991237;28;20026;-74
2022/07/22 04:27:50;;;;;;;2.85;0.82;;;16.10;99.90;;;;;;4988988;28;20529;-85
2022/07/22 04:30:16;;;;;;;5.47;1.13;;;16.10;99.90;;;;;;4990631;28;20026;-86
2022/07/22 04:32:42;;;;;;;3.90;1.00;;;16.20;99.90;;;;;;4990556;28;20464;-86
2022/07/22 04:35:08;;;;;;;5.53;1.50;;;16.20;99.90;;;;;;4990971;28;20030;-86
2022/07/22 04:37:34;;;;;;;2.30;1.08;;;16.20;99.90;;;;;;4991849;28;20023;-86
2022/07/22 04:40:00;;;;;;;4.03;1.30;;;16.20;99.90;;;;;;4991037;28;20041;-85
2022/07/22 04:42:25;;;;;;;4.20;1.15;;;16.20;99.90;;;;;;4990747;28;20117;-86
2022/07/22 04:44:51;;;;;;;3.47;1.20;;;16.30;99.90;;;;;;4992621;28;20050;-85
2022/07/22 04:47:17;;;;;;;6.50;0.77;;;16.30;99.90;;;;;;4990741;28;20046;-86
2022/07/22 04:49:42;;;;;;;5.35;1.40;;;16.30;99.90;;;;;;4990611;28;20044;-84
2022/07/22 04:52:08;;;;;;;7.93;1.05;;;16.30;99.90;;;;;;4991938;28;21120;-86
2022/07/22 04:54:35;;;;;;;6.10;0.88;;;16.30;99.90;;;;;;4990587;28;20045;-86
2022/07/22 04:57:01;;;;;;;5.63;1.00;;;16.30;99.90;;;;;;4990029;28;20460;-86
2022/07/22 04:59:27;;;;;;;6.20;2.25;;;16.30;99.90;;;;;;4991959;28;20085;-85
2022/07/22 05:01:52;;;;;;;5.50;1.27;;;16.30;99.90;;;;;;4991764;28;20023;-85
2022/07/22 05:04:18;;;;;;;2.30;0.85;;;16.30;99.90;;;;;;4990157;28;20030;-86
2022/07/22 05:06:44;;;;;;;5.50;1.55;;;16.40;99.90;;;;;;4990627;28;20050;-86
2022/07/22 05:09:10;;;;;;;4.32;1.10;;;16.40;99.90;;;;;;4990497;28;20041;-85
2022/07/22 05:11:35;;;;;;;6.80;1.40;;;16.50;99.90;;;;;;4991636;28;20038;-86
2022/07/22 05:14:01;;;;;;;3.88;1.20;;;16.60;99.90;;;;;;4990577;28;20042;-86
2022/07/22 05:16:27;;;;;;;2.95;0.70;;;16.70;99.90;;;;;;4990020;28;20364;-86
2022/07/22 05:18:53;;;;;;;6.40;0.98;;;16.70;99.90;;;;;;4990649;28;20029;-86
2022/07/22 05:21:18;;;;;;;5.85;1.20;;;16.80;99.90;;;;;;4989973;28;20026;-85
2022/07/22 05:23:44;;;;;;;4.65;1.20;;;16.90;99.90;;;;;;4991360;28;20018;-86
2022/07/22 05:26:10;;;;;;;2.50;0.90;;;17.00;99.90;;;;;;5006528;22;20556;-79
2022/07/22 05:28:36;;;;;;;2.60;1.10;;;17.00;99.90;;;;;;4991145;28;20026;-78
2022/07/22 05:31:01;;;;;;;3.63;1.20;;;17.00;99.90;;;;;;4992262;28;20030;-78
2022/07/22 05:33:27;;;;;;;4.45;0.73;;;17.10;99.90;;;;;;4991803;28;20038;-79
2022/07/22 05:35:53;;;;;;;11.10;1.55;;;17.10;99.90;;;;;;4991822;28;20031;-79
2022/07/22 05:38:19;;;;;;;4.82;1.13;;;17.20;99.90;;;;;;4990640;28;20030;-78
2022/07/22 05:40:45;;;;;;;4.18;0.80;;;17.30;99.90;;;;;;4992006;28;20088;-79
2022/07/22 05:43:10;;;;;;;5.97;0.98;;;17.30;99.90;;;;;;4991514;28;20023;-79
2022/07/22 05:45:36;;;;;;;2.25;0.85;;;17.40;99.90;;;;;;4990106;28;20033;-79
2022/07/22 05:48:02;;;;;;;4.15;0.93;;;17.50;99.90;;;;;;4991171;28;20030;-78
2022/07/22 05:50:28;;;;;;;3.80;0.70;;;17.60;99.90;;;;;;4991916;28;20113;-78
2022/07/22 05:52:54;;;;;;;3.60;1.10;;;17.60;99.90;;;;;;4991697;28;20523;-79
2022/07/22 05:55:20;;;;;;;6.65;1.30;;;17.70;99.90;;;;;;4991647;28;20062;-79
2022/07/22 05:57:46;;;;;;;4.60;0.73;;;17.80;99.90;;;;;;4991281;28;20026;-79
2022/07/22 06:00:12;;;;;;;4.38;1.10;;;17.80;99.90;;;;;;4991647;28;20088;-79
2022/07/22 06:02:38;;;;;;;4.15;1.48;;;18.00;99.90;;;;;;4991219;28;20026;-80
2022/07/22 06:05:04;;;;;;;5.65;0.90;;;18.10;99.90;;;;;;4991510;28;20027;-80
2022/07/22 06:07:30;;;;;;;7.00;0.95;;;18.20;99.90;;;;;;4998646;28;20025;-79
2022/07/22 06:09:55;;;;;;;3.38;1.10;;;18.20;99.90;;;;;;4991937;28;20031;-79
2022/07/22 06:12:21;;;;;;;5.45;1.20;;;18.30;99.90;;;;;;4991428;28;20029;-80
2022/07/22 06:14:47;;;;;;;3.72;0.93;;;18.30;99.90;;;;;;4991373;28;20117;-79
2022/07/22 06:17:13;;;;;;;4.53;1.10;;;18.30;99.90;;;;;;4989831;28;20037;-80
2022/07/22 06:19:39;;;;;;;3.50;1.13;;;18.40;99.90;;;;;;4991240;28;20022;-79
2022/07/22 06:22:05;;;;;;;1.33;0.85;;;18.40;99.90;;;;;;4990229;28;20113;-80
2022/07/22 06:24:31;;;;;;;6.28;1.08;;;18.50;99.90;;;;;;4991399;28;20117;-80
2022/07/22 06:26:57;;;;;;;5.95;1.17;;;18.60;99.90;;;;;;5018502;23;20046;-84
2022/07/22 06:29:22;;;;;;;3.08;0.93;;;18.60;99.90;;;;;;4990614;28;20023;-83
2022/07/22 06:31:49;;;;;;;2.95;1.50;;;18.70;99.90;;;;;;5004729;28;20081;-86
2022/07/22 06:34:14;;;;;;;4.07;0.90;;;18.70;99.90;;;;;;5025565;28;20411;-84
2022/07/22 06:36:40;;;;;;;5.10;1.25;;;18.60;99.90;;;;;;4991993;28;20471;-85
2022/07/22 06:39:06;;;;;;;5.85;1.40;;;18.50;99.90;;;;;;5018239;28;20039;-85
2022/07/22 06:41:32;;;;;;;4.25;1.05;;;18.50;99.90;;;;;;4994043;28;20423;-86
2022/07/22 06:43:57;;;;;;;6.78;1.00;;;18.70;99.90;;;;;;4994172;28;20034;-83
2022/07/22 06:46:23;;;;;;;2.35;0.60;;;18.70;99.90;;;;;;4992521;28;20026;-84
2022/07/22 06:48:49;;;;;;;5.72;0.88;;;18.70;99.90;;;;;;4993805;28;20022;-84
2022/07/22 06:51:15;;;;;;;2.45;1.15;;;18.70;99.90;;;;;;4993791;28;20384;-85
2022/07/22 06:53:41;;;;;;;3.42;0.98;;;18.80;99.90;;;;;;4991840;28;20064;-85
2022/07/22 06:56:07;;;;;;;3.65;1.15;;;18.80;99.90;;;;;;5008192;28;20391;-84
2022/07/22 06:58:33;;;;;;;5.60;1.20;;;18.80;99.90;;;;;;4993775;28;20430;-84
2022/07/22 07:00:59;;;;;;;3.40;0.85;;;18.80;99.90;;;;;;4993066;28;20037;-84
2022/07/22 07:03:25;;;;;;;4.68;0.98;;;18.90;99.90;;;;;;5008047;28;20022;-84
2022/07/22 07:05:51;;;;;;;3.25;0.80;;;19.00;99.90;;;;;;4993729;28;20022;-86
2022/07/22 07:08:17;;;;;;;4.65;0.95;;;19.10;99.90;;;;;;4992933;28;20027;-84
2022/07/22 07:10:43;;;;;;;6.38;1.10;;;19.40;99.90;;;;;;4994043;28;20018;-84
2022/07/22 07:13:09;;;;;;;3.40;1.25;;;19.80;99.90;;;;;;4994387;28;20110;-87
2022/07/22 07:15:36;;;;;;;4.95;1.33;;;20.10;99.90;;;;;;4992521;28;20049;-89
2022/07/22 07:18:02;;;;;;;4.30;1.17;;;20.20;99.90;;;;;;4999166;28;20022;-89
2022/07/22 07:20:28;;;;;;;5.57;1.45;;;20.50;99.90;;;;;;5009378;28;20513;-87
2022/07/22 07:22:54;;;;;;;5.53;1.15;;;20.60;99.90;;;;;;4996392;28;20791;-81
2022/07/22 07:25:20;;;;;;;3.30;0.88;;;20.80;99.90;;;;;;4993552;28;20018;-85
2022/07/22 07:27:45;;;;;;;5.03;1.05;;;21.00;99.90;;;;;;4990004;28;20044;-84
2022/07/22 07:30:11;;;;;;;6.43;1.23;;;21.00;99.90;;;;;;4991403;28;20049;-84
2022/07/22 07:32:38;;;;;;;4.50;0.85;;;20.90;99.90;;;;;;4995969;28;20061;-84
2022/07/22 07:35:05;;;;;;;3.28;1.23;;;20.80;99.90;;;;;;4993053;28;20030;-86
2022/07/22 07:37:31;;;;;;;4.50;1.00;;;20.60;99.90;;;;;;4997264;28;20046;-84
2022/07/22 07:39:57;;;;;;;3.13;1.17;;;20.50;99.90;;;;;;4992401;28;20026;-84
2022/07/22 07:42:23;;;;;;;6.20;1.30;;;20.30;99.90;;;;;;4992371;28;20069;-83
2022/07/22 07:44:49;;;;;;;2.90;1.20;;;20.30;99.90;;;;;;4991151;28;20022;-84
2022/07/22 07:47:17;;;;;;;2.10;0.90;;;20.50;99.90;;;;;;4991100;28;20037;-83
2022/07/22 07:49:47;;;;;;;3.65;0.90;;;20.60;99.90;;;;;;4991588;28;20022;-84
2022/07/22 07:52:14;;;;;;;4.43;0.98;;;20.60;99.90;;;;;;4993628;28;20032;-84
2022/07/22 07:54:40;;;;;;;4.70;1.05;;;20.40;99.90;;;;;;4995876;28;20492;-85
2022/07/22 07:57:07;;;;;;;2.72;1.10;;;20.20;99.90;;;;;;4991692;28;20046;-83
2022/07/22 07:59:33;;;;;;;4.43;1.13;;;20.20;99.90;;;;;;4992423;28;20023;-83
2022/07/22 08:01:58;;;;;;;2.45;0.80;;;20.30;99.90;;;;;;4993898;28;20083;-83
2022/07/22 08:04:24;;;;;;;5.93;1.00;;;20.60;99.90;;;;;;4991786;28;20054;-87
2022/07/22 08:06:50;;;;;;;2.38;0.98;;;20.70;99.90;;;;;;4992529;28;20099;-84
2022/07/22 08:09:16;;;;;;;2.72;1.33;;;20.80;99.90;;;;;;4992059;28;20019;-84
2022/07/22 08:11:41;;;;;;;6.95;1.05;;;20.80;99.90;;;;;;4990434;28;20027;-84
2022/07/22 08:14:07;;;;;;;4.75;1.40;;;20.70;99.90;;;;;;4991870;28;20172;-84
2022/07/22 08:16:33;;;;;;;3.53;1.25;;;20.50;99.90;;;;;;4991966;28;20382;-85
2022/07/22 08:18:59;;;;;;;3.45;0.85;;;20.20;99.90;;;;;;4992140;28;20026;-84
2022/07/22 08:21:25;;;;;;;6.03;0.90;;;20.20;99.90;;;;;;4990540;28;20165;-85
2022/07/22 08:23:51;;;;;;;3.92;1.02;;;20.10;99.90;;;;;;4995032;28;20019;-83
2022/07/22 08:26:17;;;;;;;3.20;1.25;;;20.10;99.90;;;;;;4990180;28;20057;-85
2022/07/22 08:28:43;;;;;;;3.53;1.40;;;20.20;99.90;;;;;;5007183;28;20480;-86
2022/07/22 08:31:09;;;;;;;6.70;1.15;;;20.50;99.90;;;;;;4994447;28;20381;-85
2022/07/22 08:33:35;;;;;;;4.70;1.35;;;20.80;99.90;;;;;;4990899;28;20031;-86
2022/07/22 08:36:01;;;;;;;5.75;1.10;;;21.00;99.90;;;;;;5009440;28;20026;-85
2022/07/22 08:38:26;;;;;;;4.78;0.93;;;21.30;99.90;;;;;;5006137;28;20019;-85
2022/07/22 08:40:55;;;;;;;4.03;0.93;;;21.80;99.90;;;;;;4995429;28;20030;-86
2022/07/22 08:43:21;;;;;;;5.15;1.20;;;22.30;98.50;;;;;;4990490;28;20030;-86
2022/07/22 08:45:48;;;;;;;4.90;1.30;;;22.70;92.90;;;;;;4986555;28;20361;-85
2022/07/22 08:48:14;;;;;;;5.13;0.93;;;23.10;90.90;;;;;;4993926;28;20641;-86
2022/07/22 08:50:40;;;;;;;5.15;0.98;;;23.30;88.40;;;;;;4990466;28;20023;-86
2022/07/22 08:53:11;;;;;;;5.57;0.93;;;23.60;83.20;;;;;;4993382;28;20037;-87
2022/07/22 08:55:45;;;;;;;4.40;1.33;;;24.20;81.10;;;;;;4990565;28;20117;-85
2022/07/22 08:58:11;;;;;;;2.47;0.88;;;24.30;76.20;;;;;;4996998;28;20026;-85
2022/07/22 09:00:38;;;;;;;2.05;1.17;;;24.00;72.20;;;;;;4994040;28;20033;-84
2022/07/22 09:03:47;;;;;;;5.07;0.85;;;24.20;72.00;;;;;;4991073;28;20066;-85
2022/07/22 09:06:13;;;;;;;3.13;0.93;;;24.20;75.60;;;;;;4953736;28;20037;-86
2022/07/22 09:08:58;;;;;;;4.93;1.23;;;24.60;69.70;;;;;;5006580;28;20027;-85
2022/07/22 09:11:28;;;;;;;2.22;0.95;;;25.20;69.50;;;;;;4985706;28;20023;-86
2022/07/22 09:13:54;;;;;;;2.92;0.93;;;25.70;64.10;;;;;;4991519;28;20113;-84
2022/07/22 09:16:40;;;;;;;3.55;0.95;;;26.20;61.80;;;;;;4991033;28;20018;-85
2022/07/22 09:19:06;;;;;;;2.03;0.82;;;25.90;61.10;;;;;;4989968;28;20511;-85
2022/07/22 09:21:35;;;;;;;2.72;0.88;;;25.80;62.20;;;;;;4991208;28;20045;-85
2022/07/22 09:24:01;;;;;;;5.68;1.20;;;25.30;62.20;;;;;;4994068;28;20041;-86
2022/07/22 09:26:33;;;;;;;2.35;1.10;;;24.90;63.30;;;;;;4989893;28;20042;-87
2022/07/22 09:29:00;;;;;;;1.60;0.80;;;24.90;63.60;;;;;;4989642;28;20030;-88
2022/07/22 09:31:29;;;;;;;5.88;0.90;;;24.70;63.80;;;;;;4995173;28;20431;-85
2022/07/22 09:33:55;;;;;;;7.05;1.08;;;24.60;64.70;;;;;;4995781;28;20026;-85
2022/07/22 09:36:21;;;;;;;2.95;1.02;;;24.90;65.70;;;;;;4990519;28;20114;-85
2022/07/22 09:38:47;;;;;;;3.97;1.00;;;24.70;64.90;;;;;;4990677;28;20380;-85
2022/07/22 09:41:13;;;;;;;2.88;0.95;;;24.70;64.60;;;;;;4991298;28;20023;-84
2022/07/22 09:43:39;;;;;;;3.35;1.10;;;24.50;63.00;;;;;;4991279;28;20109;-88
2022/07/22 09:46:06;;;;;;;4.97;1.30;;;24.60;63.30;;;;;;4991304;28;20502;-85
2022/07/22 09:48:32;;;;;;;4.30;1.48;;;24.90;62.20;;;;;;5006722;28;20391;-85
2022/07/22 09:50:58;;;;;;;2.75;1.10;;;25.40;62.00;;;;;;4990905;28;20034;-87
2022/07/22 09:53:30;;;;;;;3.65;1.30;;;25.80;58.30;;;;;;4993869;28;20034;-85
2022/07/22 09:55:56;;;;;;;;;;;26.10;60.00;;;;;;4989937;28;20018;-85
2022/07/22 09:58:22;;;;;;;3.58;0.60;;;26.30;57.20;;;;;;4991323;28;19906;-85
2022/07/22 10:00:49;;;;;;;4.47;0.90;;;25.90;57.60;;;;;;4993276;28;20029;-86
2022/07/22 10:03:32;;;;;;;2.05;1.00;;;25.90;58.90;;;;;;4991232;28;20022;-87
2022/07/22 10:05:59;;;;;;;5.65;0.93;;;26.20;57.00;;;;;;4991518;28;20019;-85
2022/07/22 10:08:26;;;;;;;1.88;0.90;;;26.20;57.80;;;;;;5009437;28;20029;-85
2022/07/22 10:10:53;;;;;;;6.13;1.30;;;25.90;56.40;;;;;;4994679;28;20068;-86
2022/07/22 10:13:19;;;;;;;2.97;1.00;;;26.10;58.80;;;;;;4993693;28;20042;-87
2022/07/22 10:15:46;;;;;;;2.55;1.00;;;25.70;57.80;;;;;;4994600;28;20080;-86
2022/07/22 10:18:17;;;;;;;2.95;0.75;;;25.50;58.40;;;;;;4995051;28;20118;-86
2022/07/22 10:20:43;;;;;;;2.15;1.10;;;25.10;57.60;;;;;;4994869;28;20045;-85
2022/07/22 10:23:11;;;;;;;2.30;1.00;;;25.10;59.70;;;;;;4995357;28;20031;-85
2022/07/22 10:26:00;;;;;;;2.20;1.20;;;24.70;60.80;;;;;;4994709;28;20026;-85
2022/07/22 10:28:26;;;;;;;5.22;1.10;;;24.40;62.30;;;;;;4992584;28;20022;-86
2022/07/22 10:30:53;;;;;;;4.22;1.13;;;24.10;64.20;;;;;;4995561;28;20022;-84
2022/07/22 10:33:20;;;;;;;8.63;1.50;;;23.70;66.30;;;;;;4997169;28;20479;-84
2022/07/22 10:35:54;;;;;;;3.20;1.25;;;23.50;68.10;;;;;;5000382;28;20690;-84
2022/07/22 10:38:21;;;;;;;2.20;1.27;;;23.10;73.20;;;;;;4993083;28;20486;-84
2022/07/22 10:40:49;;;;;;;2.10;1.15;;;22.90;73.80;;;;;;4993602;28;20113;-83
2022/07/22 10:43:20;;;;;;;4.57;1.33;;;23.00;77.40;;;;;;4994164;28;20054;-83
2022/07/22 10:45:49;;;;;;;2.17;1.00;;;23.00;74.20;;;;;;5015160;28;20026;-83
2022/07/22 10:48:43;;;;;;;3.97;1.40;;;23.10;75.00;;;;;;4994006;28;20069;-84
2022/07/22 10:51:17;;;;;;;6.10;1.50;;;23.10;76.90;;;;;;4993469;28;20030;-83
2022/07/22 10:53:59;;;;;;;4.53;1.10;;;22.70;75.10;;;;;;4995686;28;20037;-83
2022/07/22 10:56:35;;;;;;;4.30;1.25;;;22.50;84.00;;;;;;4994907;28;20022;-83
2022/07/22 10:59:10;;;;;;;3.72;1.17;;;22.40;78.40;;;;;;4996847;28;20018;-84
2022/07/22 11:01:47;;;;;;;4.70;1.30;;;22.30;82.50;;;;;;4996388;28;20026;-85
2022/07/22 11:04:19;;;;;;;7.03;1.42;;;22.10;84.60;;;;;;4997697;28;20030;-83
2022/07/22 11:09:12;;;;;;;9.15;1.45;;;21.90;97.70;;;;;;4995511;28;20019;-83
2022/07/22 11:11:47;;;;;;;5.38;1.20;;;21.60;99.90;;;;;;4993532;28;20113;-85
2022/07/22 11:14:30;;;;;;;5.25;1.15;;;21.50;99.90;;;;;;4992620;28;20467;-83
2022/07/22 11:16:58;;;;;;;2.33;1.30;;;21.40;99.90;;;;;;4988469;28;20014;-83
2022/07/22 11:19:27;;;;;;;3.05;1.33;;;21.30;99.90;;;;;;4992585;28;20636;-84
2022/07/22 11:21:57;;;;;;;2.95;1.40;;;21.10;99.90;;;;;;4992213;28;20033;-84
2022/07/22 11:24:24;;;;;;;5.68;1.58;;;20.90;99.90;;;;;;4991394;28;20022;-84
2022/07/22 11:26:52;;;;;;;4.15;1.60;;;20.70;99.90;;;;;;5017648;23;20050;-76
2022/07/22 11:29:30;;;;;;;6.10;1.88;;;20.50;99.90;;;;;;4993267;28;20022;-76
2022/07/22 11:31:58;;;;;;;4.00;1.52;;;20.30;99.90;;;;;;4992868;28;20084;-76
2022/07/22 11:34:24;;;;;;;3.58;1.50;;;20.10;99.90;;;;;;4993585;28;20081;-77
2022/07/22 11:36:52;;;;;;;3.90;1.83;;;19.90;99.90;;;;;;4993540;28;20022;-76
2022/07/22 11:39:21;;;;;;;3.75;2.15;;;19.90;99.90;;;;;;4993851;28;20027;-76
2022/07/22 11:41:47;;;;;;;6.07;1.63;;;19.90;99.90;;;;;;4993315;28;20011;-76
2022/07/22 11:44:17;;;;;;;5.35;1.88;;;19.90;99.90;;;;;;4993534;28;20030;-77
2022/07/22 11:46:43;;;;;;;6.85;2.03;;;20.00;99.90;;;;;;5000035;28;20101;-77
2022/07/22 11:49:09;;;;;;;4.93;1.83;;;20.20;99.90;;;;;;4992445;28;20117;-77
2022/07/22 11:51:37;;;;;;;7.47;1.98;;;20.40;99.90;;;;;;4992902;28;20044;-77
2022/07/22 11:54:04;;;;;;;3.08;1.38;;;20.60;99.90;;;;;;4985285;28;20031;-77
2022/07/22 11:56:32;;;;;;;2.70;1.30;;;20.90;99.90;;;;;;4992625;28;20014;-76
2022/07/22 11:58:58;;;;;;;4.95;1.75;;;21.00;99.90;;;;;;4994124;28;20041;-74
2022/07/22 12:01:26;;;;;;;5.18;1.90;;;20.90;99.90;;;;;;4992184;28;20045;-74
2022/07/22 12:04:04;;;;;;;3.30;1.60;;;20.70;99.90;;;;;;4991820;28;20028;-74
2022/07/22 12:06:33;;;;;;;3.25;1.48;;;20.70;99.90;;;;;;4993199;28;20041;-74
2022/07/22 12:09:11;;;;;;;5.40;1.48;;;20.80;99.90;;;;;;4991189;28;20026;-75
2022/07/22 12:11:41;;;;;;;5.07;1.75;;;20.90;99.90;;;;;;4992763;28;20018;-74
2022/07/22 12:14:13;;;;;;;2.35;1.30;;;21.20;99.90;;;;;;4991630;28;20034;-75
2022/07/22 12:16:40;;;;;;;5.28;1.70;;;21.50;99.90;;;;;;4991173;28;20018;-75
2022/07/22 12:19:07;;;;;;;5.38;1.75;;;21.70;99.90;;;;;;4991007;28;20022;-75
2022/07/22 12:21:55;;;;;;;3.53;1.25;;;21.90;99.90;;;;;;4992415;28;20045;-75
2022/07/22 12:24:32;;;;;;;3.45;1.08;;;22.10;99.90;;;;;;4986696;28;20026;-74
2022/07/22 12:27:03;;;;;;;3.67;1.15;;;22.30;99.90;;;;;;4986736;28;20030;-75
2022/07/22 12:29:40;;;;;;;4.13;1.00;;;22.30;99.90;;;;;;4991070;28;20026;-74
2022/07/22 12:32:17;;;;;;;1.50;0.88;;;22.40;99.90;;;;;;4990702;28;20036;-75
2022/07/22 12:34:47;;;;;;;3.30;1.30;;;22.80;99.90;;;;;;4992288;28;20038;-75
2022/07/22 12:37:40;;;;;;;0.80;0.77;;;23.00;99.90;;;;;;4992056;28;20022;-75
2022/07/22 12:40:16;;;;;;;5.05;1.42;;;23.40;99.90;;;;;;4991571;28;20161;-75
2022/07/22 12:43:05;;;;;;;3.67;0.88;;;23.60;99.90;;;;;;4991636;28;20030;-76
2022/07/22 12:45:34;;;;;;;5.32;1.27;;;23.40;99.90;;;;;;4991455;28;20361;-75
2022/07/22 12:48:05;;;;;;;10.27;1.25;;;23.40;99.90;;;;;;4991293;28;20045;-75
2022/07/22 12:50:34;;;;;;;2.42;1.15;;;23.10;99.90;;;;;;4985688;28;20019;-75
2022/07/22 12:53:06;;;;;;;5.80;1.15;;;22.60;99.90;;;;;;4990569;28;20041;-75
2022/07/22 12:58:05;;;;;;;3.73;1.00;;;22.60;99.90;;;;;;4949714;29;20074;-83